Time;durP1;ratioP1;P1;durP2;ratioP2;P2;SDS_P1;SDS_P2;PMS_P1;PMS_P2;Temp;Humidity;BMP_temperature;BMP_pressure;BME280_temperature;BME280_humidity;BME280_pressure;Samples;Min_cycle;Max_cycle;Signal;HPM_P1;HPM_P2
2024/01/07 00:01:59;;;;;;;19.77;14.85;;;;;;;;;;4991407;28;25071;-71
2024/01/07 00:04:25;;;;;;;18.40;14.60;;;;;;;;;;5000997;28;25063;-72
2024/01/07 00:06:50;;;;;;;19.10;15.13;;;;;;;;;;4986894;28;25072;-74
2024/01/07 00:09:17;;;;;;;20.10;15.10;;;;;;;;;;4989406;28;25077;-69
2024/01/07 00:11:43;;;;;;;19.08;15.10;;;;;;;;;;4980680;28;25066;-71
2024/01/07 00:14:09;;;;;;;20.63;14.52;;;;;;;;;;4991091;28;25099;-71
2024/01/07 00:16:34;;;;;;;18.30;14.10;;;;;;;;;;4992028;28;25062;-69
2024/01/07 00:19:00;;;;;;;19.65;15.10;;;;;;;;;;4999549;28;25072;-71
2024/01/07 00:21:26;;;;;;;18.50;14.02;;;;;;;;;;4996837;28;25061;-68
2024/01/07 00:23:52;;;;;;;18.45;13.88;;;;;;;;;;4997884;28;25091;-72
2024/01/07 00:26:18;;;;;;;17.45;14.05;;;;;;;;;;5002943;28;25132;-71
2024/01/07 00:28:44;;;;;;;17.95;13.45;;;;;;;;;;4997742;28;25068;-70
2024/01/07 00:31:12;;;;;;;15.02;12.80;;;;;;;;;;5002197;28;25071;-70
2024/01/07 00:33:38;;;;;;;17.65;13.02;;;;;;;;;;4998175;28;25084;-71
2024/01/07 00:36:05;;;;;;;15.50;12.30;;;;;;;;;;4997681;28;25079;-71
2024/01/07 00:38:31;;;;;;;14.27;12.52;;;;;;;;;;5000113;28;25065;-71
2024/01/07 00:40:57;;;;;;;13.82;12.18;;;;;;;;;;4999843;28;25127;-71
2024/01/07 00:43:22;;;;;;;13.93;10.65;;;;;;;;;;5000764;28;25065;-71
2024/01/07 00:45:48;;;;;;;13.27;11.90;;;;;;;;;;5002375;28;25120;-72
2024/01/07 00:48:15;;;;;;;13.63;11.85;;;;;;;;;;5004318;28;25074;-71
2024/01/07 00:50:41;;;;;;;16.17;12.40;;;;;;;;;;5005573;28;25061;-71
2024/01/07 00:53:07;;;;;;;14.57;12.27;;;;;;;;;;5000026;28;25074;-71
2024/01/07 00:55:35;;;;;;;16.60;12.80;;;;;;;;;;5000096;28;25053;-68
2024/01/07 00:58:02;;;;;;;15.48;12.75;;;;;;;;;;5006590;28;25070;-70
2024/01/07 01:00:29;;;;;;;14.25;12.27;;;;;;;;;;5002940;28;25055;-71
2024/01/07 01:02:55;;;;;;;18.15;14.43;;;;;;;;;;4996948;28;25064;-69
2024/01/07 01:05:22;;;;;;;18.35;14.25;;;;;;;;;;4995814;28;25061;-70
2024/01/07 01:07:48;;;;;;;18.65;14.68;;;;;;;;;;4995654;28;25137;-70
2024/01/07 01:10:18;;;;;;;20.23;15.82;;;;;;;;;;5000854;28;25094;-69
2024/01/07 01:12:44;;;;;;;17.17;14.38;;;;;;;;;;4994669;28;25117;-69
2024/01/07 01:15:11;;;;;;;18.17;15.32;;;;;;;;;;4994096;28;25084;-71
2024/01/07 01:17:37;;;;;;;18.67;15.27;;;;;;;;;;4997457;28;25173;-72
2024/01/07 01:20:03;;;;;;;18.33;14.75;;;;;;;;;;4991856;28;25098;-69
2024/01/07 01:22:30;;;;;;;18.73;14.85;;;;;;;;;;4997591;28;25088;-70
2024/01/07 01:24:56;;;;;;;19.88;14.40;;;;;;;;;;4993035;28;25152;-70
2024/01/07 01:27:22;;;;;;;19.10;14.45;;;;;;;;;;4999098;28;25071;-70
2024/01/07 01:29:48;;;;;;;17.83;14.65;;;;;;;;;;5000042;28;25130;-70
2024/01/07 01:32:14;;;;;;;18.85;15.98;;;;;;;;;;4998672;28;25055;-73
2024/01/07 01:34:41;;;;;;;19.77;16.10;;;;;;;;;;4997217;28;25118;-70
2024/01/07 01:37:08;;;;;;;21.35;16.77;;;;;;;;;;5003819;28;25161;-71
2024/01/07 01:39:34;;;;;;;21.25;18.90;;;;;;;;;;4999775;28;25129;-71
2024/01/07 01:42:00;;;;;;;21.67;16.35;;;;;;;;;;4993016;28;25063;-73
2024/01/07 01:44:31;;;;;;;20.95;16.60;;;;;;;;;;5035610;28;25052;-71
2024/01/07 01:46:57;;;;;;;25.20;17.98;;;;;;;;;;4994332;28;25101;-70
2024/01/07 01:49:24;;;;;;;24.60;18.55;;;;;;;;;;5003227;28;25527;-71
2024/01/07 01:51:52;;;;;;;22.27;18.92;;;;;;;;;;4991138;28;25128;-72
2024/01/07 01:54:18;;;;;;;24.70;19.88;;;;;;;;;;4993493;28;25062;-72
2024/01/07 01:56:44;;;;;;;24.48;19.95;;;;;;;;;;4996546;28;25081;-71
2024/01/07 01:59:11;;;;;;;22.83;18.52;;;;;;;;;;5002490;28;25156;-70
2024/01/07 02:01:37;;;;;;;20.25;16.77;;;;;;;;;;4995872;28;25071;-72
2024/01/07 02:04:03;;;;;;;24.95;18.80;;;;;;;;;;4996711;28;25117;-70
2024/01/07 02:06:29;;;;;;;21.10;17.25;;;;;;;;;;4991882;28;25070;-69
2024/01/07 02:08:55;;;;;;;23.73;17.20;;;;;;;;;;4999439;28;25084;-70
2024/01/07 02:11:22;;;;;;;22.67;17.70;;;;;;;;;;4996660;28;25111;-70
2024/01/07 02:13:48;;;;;;;24.13;18.05;;;;;;;;;;4998800;28;25069;-70
2024/01/07 02:16:14;;;;;;;26.00;19.42;;;;;;;;;;4996391;28;25020;-70
2024/01/07 02:18:44;;;;;;;26.17;19.98;;;;;;;;;;5001737;28;25080;-71
2024/01/07 02:21:10;;;;;;;22.75;17.95;;;;;;;;;;4994701;28;25061;-70
2024/01/07 02:23:37;;;;;;;22.40;18.27;;;;;;;;;;4995936;28;25052;-71
2024/01/07 02:26:03;;;;;;;23.33;19.67;;;;;;;;;;5001596;28;25070;-71
2024/01/07 02:28:29;;;;;;;23.63;19.52;;;;;;;;;;5003752;28;25044;-72
2024/01/07 02:30:55;;;;;;;25.25;21.55;;;;;;;;;;4993337;28;25123;-72
2024/01/07 02:33:21;;;;;;;26.40;19.23;;;;;;;;;;4998916;28;25085;-72
2024/01/07 02:35:48;;;;;;;26.33;19.52;;;;;;;;;;4993143;28;25061;-68
2024/01/07 02:38:14;;;;;;;27.42;21.13;;;;;;;;;;4994884;28;25070;-71
2024/01/07 02:40:39;;;;;;;28.38;20.60;;;;;;;;;;4999415;28;25076;-68
2024/01/07 02:43:05;;;;;;;26.67;20.55;;;;;;;;;;4999018;28;25065;-71
2024/01/07 02:45:31;;;;;;;25.98;18.88;;;;;;;;;;4989943;28;25148;-70
2024/01/07 02:47:57;;;;;;;26.15;20.38;;;;;;;;;;4992370;28;25065;-71
2024/01/07 02:50:23;;;;;;;20.63;17.33;;;;;;;;;;4995183;28;25065;-72
2024/01/07 02:52:49;;;;;;;23.55;18.27;;;;;;;;;;5001312;28;25487;-69
2024/01/07 02:55:15;;;;;;;23.50;17.42;;;;;;;;;;5003318;28;25119;-70
2024/01/07 02:57:41;;;;;;;23.48;18.92;;;;;;;;;;5003201;28;25084;-70
2024/01/07 03:00:08;;;;;;;23.80;18.23;;;;;;;;;;5001549;28;25078;-71
2024/01/07 03:02:34;;;;;;;23.63;17.02;;;;;;;;;;5001146;28;25067;-70
2024/01/07 03:05:00;;;;;;;22.30;17.95;;;;;;;;;;4996396;28;25084;-70
2024/01/07 03:07:26;;;;;;;24.45;17.38;;;;;;;;;;4997655;28;25077;-70
2024/01/07 03:09:52;;;;;;;23.73;19.83;;;;;;;;;;5001136;28;25108;-70
2024/01/07 03:12:18;;;;;;;24.08;17.40;;;;;;;;;;4999286;28;25094;-70
2024/01/07 03:14:44;;;;;;;20.38;16.38;;;;;;;;;;4996558;28;25070;-71
2024/01/07 03:17:11;;;;;;;23.40;18.50;;;;;;;;;;4994533;28;25101;-70
2024/01/07 03:19:38;;;;;;;22.27;17.30;;;;;;;;;;4993288;28;25076;-67
2024/01/07 03:22:05;;;;;;;26.90;22.60;;;;;;;;;;4992598;28;25140;-71
2024/01/07 03:24:31;;;;;;;24.45;18.98;;;;;;;;;;4993315;28;25058;-68
2024/01/07 03:26:57;;;;;;;24.83;19.50;;;;;;;;;;4988030;28;25081;-71
2024/01/07 03:29:23;;;;;;;25.95;21.23;;;;;;;;;;4990797;28;25112;-70
2024/01/07 03:31:50;;;;;;;24.98;17.95;;;;;;;;;;5027590;28;25065;-70
2024/01/07 03:34:16;;;;;;;27.02;20.23;;;;;;;;;;4995521;28;25062;-73
2024/01/07 03:36:42;;;;;;;27.33;19.05;;;;;;;;;;4996703;28;25138;-75
2024/01/07 03:39:08;;;;;;;29.33;20.02;;;;;;;;;;4995723;28;25088;-72
2024/01/07 03:41:34;;;;;;;36.50;22.63;;;;;;;;;;4996898;28;25087;-70
2024/01/07 03:44:00;;;;;;;31.50;21.02;;;;;;;;;;5002828;28;25083;-71
2024/01/07 03:46:26;;;;;;;33.00;23.77;;;;;;;;;;4995386;28;25068;-72
2024/01/07 03:48:52;;;;;;;34.17;21.85;;;;;;;;;;4990762;28;25151;-73
2024/01/07 03:51:18;;;;;;;32.38;22.98;;;;;;;;;;4992794;28;25071;-73
2024/01/07 03:53:45;;;;;;;37.00;23.88;;;;;;;;;;4989615;28;25060;-72
2024/01/07 03:56:11;;;;;;;36.58;24.45;;;;;;;;;;4986841;28;25127;-74
2024/01/07 03:58:37;;;;;;;33.17;24.98;;;;;;;;;;4991696;28;25077;-73
2024/01/07 04:01:03;;;;;;;37.28;25.90;;;;;;;;;;4995678;28;25071;-72
2024/01/07 04:03:29;;;;;;;36.78;25.73;;;;;;;;;;4990440;28;25088;-73
2024/01/07 04:05:55;;;;;;;40.05;24.85;;;;;;;;;;4990497;28;25093;-73
2024/01/07 04:08:21;;;;;;;37.88;25.70;;;;;;;;;;4996959;28;25074;-72
2024/01/07 04:10:47;;;;;;;38.72;25.58;;;;;;;;;;4992833;28;25063;-75
2024/01/07 04:13:13;;;;;;;40.00;25.73;;;;;;;;;;4994721;28;25083;-70
2024/01/07 04:15:39;;;;;;;44.10;29.38;;;;;;;;;;4998847;28;25067;-71
2024/01/07 04:18:05;;;;;;;41.28;26.77;;;;;;;;;;4995355;28;25061;-72
2024/01/07 04:20:31;;;;;;;44.42;30.15;;;;;;;;;;4993430;28;25058;-72
2024/01/07 04:22:58;;;;;;;45.92;29.23;;;;;;;;;;4994799;28;25111;-72
2024/01/07 04:25:27;;;;;;;45.38;30.17;;;;;;;;;;4995320;28;25229;-73
2024/01/07 04:27:53;;;;;;;45.10;29.88;;;;;;;;;;4989429;28;25080;-73
2024/01/07 04:30:19;;;;;;;40.17;27.20;;;;;;;;;;4994247;28;25064;-73
2024/01/07 04:32:45;;;;;;;43.90;29.77;;;;;;;;;;4995748;28;25096;-73
2024/01/07 04:35:11;;;;;;;45.53;30.30;;;;;;;;;;5028136;28;25158;-72
2024/01/07 04:37:37;;;;;;;45.05;29.88;;;;;;;;;;4990110;28;25103;-73
2024/01/07 04:40:04;;;;;;;42.50;29.60;;;;;;;;;;4996280;28;25079;-71
2024/01/07 04:42:30;;;;;;;45.45;30.50;;;;;;;;;;4992347;28;25077;-72
2024/01/07 04:44:56;;;;;;;42.88;30.15;;;;;;;;;;4993216;28;25087;-74
2024/01/07 04:47:29;;;;;;;38.17;27.02;;;;;;;;;;4990759;28;25076;-73
2024/01/07 04:49:55;;;;;;;40.88;28.17;;;;;;;;;;4991659;28;25060;-72
2024/01/07 04:52:22;;;;;;;40.75;27.27;;;;;;;;;;4992490;28;25144;-73
2024/01/07 04:54:48;;;;;;;42.08;29.90;;;;;;;;;;4982172;28;25125;-72
2024/01/07 04:57:14;;;;;;;43.30;28.23;;;;;;;;;;4992306;28;25073;-73
2024/01/07 04:59:40;;;;;;;38.05;26.75;;;;;;;;;;4994439;28;25057;-71
2024/01/07 05:02:06;;;;;;;35.92;25.95;;;;;;;;;;4992713;28;25108;-73
2024/01/07 05:04:32;;;;;;;36.78;26.50;;;;;;;;;;5023674;28;25179;-72
2024/01/07 05:06:58;;;;;;;37.47;27.27;;;;;;;;;;4983720;28;25061;-73
2024/01/07 05:09:24;;;;;;;41.97;27.27;;;;;;;;;;4993360;28;25154;-73
2024/01/07 05:11:50;;;;;;;34.63;25.60;;;;;;;;;;4990305;28;25162;-72
2024/01/07 05:14:16;;;;;;;36.63;25.88;;;;;;;;;;4995502;28;25120;-72
2024/01/07 05:16:42;;;;;;;39.50;27.45;;;;;;;;;;4986755;28;25080;-72
2024/01/07 05:19:08;;;;;;;37.45;26.88;;;;;;;;;;4983225;28;25132;-72
2024/01/07 05:21:34;;;;;;;40.30;27.10;;;;;;;;;;4987500;28;25060;-73
2024/01/07 05:24:00;;;;;;;35.50;25.35;;;;;;;;;;4988302;28;25049;-70
2024/01/07 05:26:26;;;;;;;40.83;26.50;;;;;;;;;;4987540;28;25098;-72
2024/01/07 05:28:52;;;;;;;39.28;26.52;;;;;;;;;;4990708;28;25083;-71
2024/01/07 05:31:18;;;;;;;38.97;27.15;;;;;;;;;;4989316;28;25067;-70
2024/01/07 05:33:44;;;;;;;42.60;29.60;;;;;;;;;;4991760;28;25052;-72
2024/01/07 05:36:11;;;;;;;41.55;27.17;;;;;;;;;;5000882;28;25065;-71
2024/01/07 05:38:37;;;;;;;38.83;27.05;;;;;;;;;;4996856;28;25053;-74
2024/01/07 05:41:03;;;;;;;40.75;27.00;;;;;;;;;;4998617;28;25115;-73
2024/01/07 05:43:29;;;;;;;47.22;29.10;;;;;;;;;;4997752;28;25065;-73
2024/01/07 05:45:55;;;;;;;44.60;28.98;;;;;;;;;;4995456;28;25111;-72
2024/01/07 05:48:22;;;;;;;40.90;28.10;;;;;;;;;;4994744;28;25052;-72
2024/01/07 05:50:48;;;;;;;45.35;30.98;;;;;;;;;;4991764;28;25068;-72
2024/01/07 05:53:14;;;;;;;43.38;29.17;;;;;;;;;;4990269;28;25060;-73
2024/01/07 05:55:40;;;;;;;42.83;30.77;;;;;;;;;;4993479;28;25112;-72
2024/01/07 05:58:06;;;;;;;43.17;28.15;;;;;;;;;;4993103;28;25057;-73
2024/01/07 06:00:32;;;;;;;39.85;27.15;;;;;;;;;;4994348;28;25070;-72
2024/01/07 06:02:58;;;;;;;42.55;27.10;;;;;;;;;;5019697;28;25062;-73
2024/01/07 06:05:24;;;;;;;40.92;26.67;;;;;;;;;;4998393;28;25057;-73
2024/01/07 06:07:50;;;;;;;43.78;29.73;;;;;;;;;;5005338;28;25058;-74
2024/01/07 06:10:16;;;;;;;38.00;26.42;;;;;;;;;;4992235;28;25215;-71
2024/01/07 06:12:42;;;;;;;42.45;29.42;;;;;;;;;;4999937;28;25064;-70
2024/01/07 06:15:08;;;;;;;42.10;27.33;;;;;;;;;;4997631;28;25064;-70
2024/01/07 06:17:34;;;;;;;41.95;27.58;;;;;;;;;;4989449;28;25074;-70
2024/01/07 06:20:00;;;;;;;43.17;30.45;;;;;;;;;;4984028;28;25060;-71
2024/01/07 06:22:26;;;;;;;43.15;28.48;;;;;;;;;;4982270;28;25079;-69
2024/01/07 06:24:52;;;;;;;42.35;26.88;;;;;;;;;;4985275;28;25083;-70
2024/01/07 06:27:18;;;;;;;39.85;27.08;;;;;;;;;;4995723;28;25126;-71
2024/01/07 06:29:44;;;;;;;40.75;25.80;;;;;;;;;;4990439;28;25099;-71
2024/01/07 06:32:10;;;;;;;41.72;26.30;;;;;;;;;;4991265;28;25088;-68
2024/01/07 06:34:36;;;;;;;37.08;24.17;;;;;;;;;;4991590;28;25074;-69
2024/01/07 06:37:02;;;;;;;37.85;27.08;;;;;;;;;;4999983;28;25055;-71
2024/01/07 06:39:28;;;;;;;38.40;25.38;;;;;;;;;;4997245;28;24983;-69
2024/01/07 06:41:55;;;;;;;38.10;28.35;;;;;;;;;;5003790;28;25165;-70
2024/01/07 06:44:21;;;;;;;38.10;24.77;;;;;;;;;;4986792;28;25069;-71
2024/01/07 06:46:47;;;;;;;35.45;25.50;;;;;;;;;;5001456;28;25055;-71
2024/01/07 06:49:13;;;;;;;29.20;21.30;;;;;;;;;;4994390;28;25137;-70
2024/01/07 06:51:39;;;;;;;29.00;21.17;;;;;;;;;;4989855;28;25066;-71
2024/01/07 06:54:05;;;;;;;30.90;23.00;;;;;;;;;;4984090;28;25157;-71
2024/01/07 06:56:31;;;;;;;30.33;21.67;;;;;;;;;;4992910;28;25077;-69
2024/01/07 06:58:57;;;;;;;30.95;23.58;;;;;;;;;;4987387;28;25098;-73
2024/01/07 07:01:23;;;;;;;32.10;22.55;;;;;;;;;;4991845;28;25055;-70
2024/01/07 07:03:52;;;;;;;33.17;23.80;;;;;;;;;;4999060;28;25174;-70
2024/01/07 07:06:18;;;;;;;33.35;22.85;;;;;;;;;;4990064;28;25076;-70
2024/01/07 07:08:44;;;;;;;31.23;21.58;;;;;;;;;;4993924;28;25124;-70
2024/01/07 07:11:10;;;;;;;29.60;22.13;;;;;;;;;;4993494;28;25053;-71
2024/01/07 07:13:37;;;;;;;32.35;22.63;;;;;;;;;;5004366;28;25159;-71
2024/01/07 07:16:04;;;;;;;30.92;22.50;;;;;;;;;;4999425;28;25053;-69
2024/01/07 07:18:29;;;;;;;28.90;21.13;;;;;;;;;;4989716;28;25131;-72
2024/01/07 07:20:55;;;;;;;27.45;20.65;;;;;;;;;;4995009;28;25064;-70
2024/01/07 07:23:21;;;;;;;28.15;21.10;;;;;;;;;;4996847;28;25074;-70
2024/01/07 07:25:47;;;;;;;34.60;22.27;;;;;;;;;;4993434;28;25056;-70
2024/01/07 07:28:13;;;;;;;28.40;21.08;;;;;;;;;;4995842;28;25143;-69
2024/01/07 07:30:39;;;;;;;31.05;21.73;;;;;;;;;;4993835;28;25179;-70
2024/01/07 07:33:05;;;;;;;27.52;20.92;;;;;;;;;;4989017;28;25077;-71
2024/01/07 07:35:31;;;;;;;33.63;23.15;;;;;;;;;;4988326;28;25047;-72
2024/01/07 07:37:57;;;;;;;35.88;26.10;;;;;;;;;;4997633;28;25150;-71
2024/01/07 07:40:23;;;;;;;36.05;23.92;;;;;;;;;;4988688;28;25069;-70
2024/01/07 07:42:49;;;;;;;37.00;26.40;;;;;;;;;;4992270;28;25131;-71
2024/01/07 07:45:15;;;;;;;31.75;23.23;;;;;;;;;;4994295;28;25074;-69
2024/01/07 07:47:44;;;;;;;38.47;25.33;;;;;;;;;;4991018;28;25133;-70
2024/01/07 07:50:10;;;;;;;36.22;24.50;;;;;;;;;;4991049;28;25148;-70
2024/01/07 07:52:36;;;;;;;39.47;26.60;;;;;;;;;;4991714;28;25066;-71
2024/01/07 07:55:02;;;;;;;33.50;22.77;;;;;;;;;;4995050;28;25051;-70
2024/01/07 07:57:28;;;;;;;33.92;25.90;;;;;;;;;;4990441;28;25122;-73
2024/01/07 07:59:55;;;;;;;32.45;22.30;;;;;;;;;;4985785;28;25104;-70
2024/01/07 08:02:21;;;;;;;31.40;21.88;;;;;;;;;;4990270;28;25074;-71
2024/01/07 08:04:47;;;;;;;30.83;20.60;;;;;;;;;;4990092;28;25082;-70
2024/01/07 08:07:13;;;;;;;29.40;22.67;;;;;;;;;;4985654;28;25098;-68
2024/01/07 08:09:39;;;;;;;28.33;21.00;;;;;;;;;;4986056;28;25069;-70
2024/01/07 08:12:06;;;;;;;32.78;22.75;;;;;;;;;;4979665;28;25128;-69
2024/01/07 08:14:32;;;;;;;30.83;21.77;;;;;;;;;;4980812;28;25220;-69
2024/01/07 08:16:58;;;;;;;28.95;22.40;;;;;;;;;;4984257;28;25081;-69
2024/01/07 08:19:24;;;;;;;30.92;21.08;;;;;;;;;;4982025;28;25063;-70
2024/01/07 08:21:50;;;;;;;33.65;21.40;;;;;;;;;;4984877;28;25141;-69
2024/01/07 08:24:16;;;;;;;34.00;22.70;;;;;;;;;;4982117;28;25124;-70
2024/01/07 08:26:42;;;;;;;31.45;21.80;;;;;;;;;;4982706;28;25173;-69
2024/01/07 08:29:08;;;;;;;29.98;22.33;;;;;;;;;;4985638;28;25057;-73
2024/01/07 08:31:34;;;;;;;35.20;22.08;;;;;;;;;;4980607;28;25071;-70
2024/01/07 08:34:00;;;;;;;32.95;22.23;;;;;;;;;;5016639;28;25047;-70
2024/01/07 08:36:26;;;;;;;29.75;21.98;;;;;;;;;;4984146;28;25063;-71
2024/01/07 08:38:52;;;;;;;31.55;21.65;;;;;;;;;;5012910;28;25077;-72
2024/01/07 08:41:18;;;;;;;28.50;21.52;;;;;;;;;;4980518;28;25107;-69
2024/01/07 08:43:45;;;;;;;30.60;20.52;;;;;;;;;;4991363;28;25080;-70
2024/01/07 08:46:11;;;;;;;29.63;22.05;;;;;;;;;;4990192;28;25055;-70
2024/01/07 08:48:37;;;;;;;34.35;20.95;;;;;;;;;;4986752;28;25111;-72
2024/01/07 08:51:03;;;;;;;27.75;21.35;;;;;;;;;;4992883;28;25068;-72
2024/01/07 08:53:29;;;;;;;29.65;20.80;;;;;;;;;;4993382;28;25068;-70
2024/01/07 08:55:55;;;;;;;29.58;20.88;;;;;;;;;;4993823;28;25068;-69
2024/01/07 08:58:21;;;;;;;28.52;19.48;;;;;;;;;;4983494;28;25071;-69
2024/01/07 09:00:47;;;;;;;27.05;20.35;;;;;;;;;;5011734;28;25071;-70
2024/01/07 09:03:13;;;;;;;27.73;20.63;;;;;;;;;;4977135;28;25047;-70
2024/01/07 09:05:39;;;;;;;28.02;19.88;;;;;;;;;;5014006;28;25071;-71
2024/01/07 09:08:06;;;;;;;28.52;19.15;;;;;;;;;;4985603;28;25074;-70
2024/01/07 09:10:33;;;;;;;24.30;17.70;;;;;;;;;;4986239;28;25061;-70
2024/01/07 09:12:59;;;;;;;26.58;20.20;;;;;;;;;;4985812;28;25071;-70
2024/01/07 09:15:25;;;;;;;26.42;19.75;;;;;;;;;;4985184;28;25143;-70
2024/01/07 09:17:51;;;;;;;25.65;19.30;;;;;;;;;;4986603;28;25130;-71
2024/01/07 09:20:17;;;;;;;26.67;18.17;;;;;;;;;;5015982;28;25097;-71
2024/01/07 09:22:43;;;;;;;25.35;16.90;;;;;;;;;;4983590;28;25060;-70
2024/01/07 09:25:10;;;;;;;27.38;17.90;;;;;;;;;;4985222;28;25067;-70
2024/01/07 09:27:36;;;;;;;27.20;18.95;;;;;;;;;;4995072;28;25151;-70
2024/01/07 09:30:02;;;;;;;22.05;17.05;;;;;;;;;;4985303;28;25109;-70
2024/01/07 09:32:28;;;;;;;29.55;17.88;;;;;;;;;;4989821;28;25098;-72
2024/01/07 09:34:54;;;;;;;29.83;20.17;;;;;;;;;;4992837;28;25149;-70
2024/01/07 09:37:20;;;;;;;25.73;19.70;;;;;;;;;;4987639;28;25136;-71
2024/01/07 09:39:46;;;;;;;28.92;18.38;;;;;;;;;;4987780;28;25059;-69
2024/01/07 09:42:16;;;;;;;29.13;22.33;;;;;;;;;;4984826;28;25100;-69
2024/01/07 09:44:43;;;;;;;27.02;18.38;;;;;;;;;;4987545;28;25077;-70
2024/01/07 09:47:14;;;;;;;26.25;18.17;;;;;;;;;;4986153;28;25060;-70
2024/01/07 09:49:41;;;;;;;26.75;19.67;;;;;;;;;;4988402;28;25060;-70
2024/01/07 09:52:08;;;;;;;23.60;17.92;;;;;;;;;;4985936;28;25086;-69
2024/01/07 09:54:34;;;;;;;26.33;18.40;;;;;;;;;;5011900;28;25064;-70
2024/01/07 09:57:01;;;;;;;27.80;18.40;;;;;;;;;;4985849;28;25060;-70
2024/01/07 09:59:30;;;;;;;25.25;17.30;;;;;;;;;;4983751;28;25163;-71
2024/01/07 10:01:57;;;;;;;23.13;17.42;;;;;;;;;;4988230;28;25129;-69
2024/01/07 10:04:24;;;;;;;27.10;18.60;;;;;;;;;;4993689;28;25068;-69
2024/01/07 10:06:50;;;;;;;25.33;18.23;;;;;;;;;;4984993;28;25123;-70
2024/01/07 10:09:17;;;;;;;24.08;17.83;;;;;;;;;;4991881;28;25067;-71
2024/01/07 10:11:43;;;;;;;25.75;18.90;;;;;;;;;;4994385;28;25138;-70
2024/01/07 10:14:09;;;;;;;23.55;17.10;;;;;;;;;;5020637;28;25085;-69
2024/01/07 10:16:35;;;;;;;25.08;17.02;;;;;;;;;;4989203;28;25082;-70
2024/01/07 10:19:01;;;;;;;22.30;17.70;;;;;;;;;;4983939;28;25128;-70
2024/01/07 10:21:27;;;;;;;22.23;17.35;;;;;;;;;;4983884;28;25124;-70
2024/01/07 10:24:08;;;;;;;24.05;17.70;;;;;;;;;;5016361;28;25091;-71
2024/01/07 10:26:34;;;;;;;24.58;16.50;;;;;;;;;;4981257;28;25079;-69
2024/01/07 10:29:00;;;;;;;20.55;17.02;;;;;;;;;;5002675;28;25099;-72
2024/01/07 10:31:26;;;;;;;22.08;18.02;;;;;;;;;;4984557;28;25075;-68
2024/01/07 10:33:53;;;;;;;24.25;17.65;;;;;;;;;;4988091;28;25077;-70
2024/01/07 10:36:21;;;;;;;25.95;18.45;;;;;;;;;;4986251;28;25092;-71
2024/01/07 10:38:47;;;;;;;25.08;18.33;;;;;;;;;;4981686;28;25116;-70
2024/01/07 10:41:15;;;;;;;21.63;17.63;;;;;;;;;;4982266;28;25106;-70
2024/01/07 10:43:42;;;;;;;20.08;17.77;;;;;;;;;;4987326;28;25068;-71
2024/01/07 10:46:09;;;;;;;22.80;17.23;;;;;;;;;;4984979;28;25055;-69
2024/01/07 10:48:38;;;;;;;22.38;17.63;;;;;;;;;;4982757;28;25126;-71
2024/01/07 10:51:04;;;;;;;22.55;17.15;;;;;;;;;;4982438;28;25059;-70
2024/01/07 10:53:37;;;;;;;20.77;16.98;;;;;;;;;;4982206;28;25112;-72
2024/01/07 10:56:06;;;;;;;21.63;17.52;;;;;;;;;;4981656;28;25076;-69
2024/01/07 10:58:36;;;;;;;20.73;15.25;;;;;;;;;;4988251;28;25070;-70
2024/01/07 11:01:03;;;;;;;23.00;16.58;;;;;;;;;;4989410;28;25158;-70
2024/01/07 11:03:48;;;;;;;21.10;15.75;;;;;;;;;;4992192;28;25085;-70
2024/01/07 11:06:22;;;;;;;25.70;16.85;;;;;;;;;;4993342;28;25057;-72
2024/01/07 11:09:04;;;;;;;20.77;14.40;;;;;;;;;;4985255;28;25062;-70
2024/01/07 11:11:37;;;;;;;19.67;14.57;;;;;;;;;;4985104;28;25117;-71
2024/01/07 11:14:03;;;;;;;18.02;15.35;;;;;;;;;;4988444;28;25063;-70
2024/01/07 11:16:43;;;;;;;21.63;16.80;;;;;;;;;;4989006;28;25046;-69
2024/01/07 11:19:09;;;;;;;24.85;16.58;;;;;;;;;;4989339;28;25121;-70
2024/01/07 11:21:35;;;;;;;20.63;16.20;;;;;;;;;;4988729;28;25123;-69
2024/01/07 11:24:01;;;;;;;25.50;17.83;;;;;;;;;;4989787;28;25103;-70
2024/01/07 11:26:30;;;;;;;26.48;18.10;;;;;;;;;;4991247;28;25096;-72
2024/01/07 11:28:57;;;;;;;20.70;16.15;;;;;;;;;;4983832;28;25063;-70
2024/01/07 11:31:42;;;;;;;22.83;18.85;;;;;;;;;;4988971;28;25051;-72
2024/01/07 11:34:08;;;;;;;19.80;14.45;;;;;;;;;;4983783;28;25064;-70
2024/01/07 11:36:36;;;;;;;21.30;14.10;;;;;;;;;;4986884;28;26218;-68
2024/01/07 11:39:02;;;;;;;20.73;14.13;;;;;;;;;;4987162;28;25148;-68
2024/01/07 11:41:29;;;;;;;24.80;13.88;;;;;;;;;;4985473;28;25167;-70
2024/01/07 11:43:59;;;;;;;20.55;14.63;;;;;;;;;;4991356;28;25060;-70
2024/01/07 11:46:30;;;;;;;21.25;13.05;;;;;;;;;;4987541;28;25158;-71
2024/01/07 11:49:00;;;;;;;14.82;12.07;;;;;;;;;;4988943;28;25078;-69
2024/01/07 11:51:26;;;;;;;19.67;13.30;;;;;;;;;;4987410;28;25093;-73
2024/01/07 11:53:52;;;;;;;21.02;12.68;;;;;;;;;;4986447;28;25068;-70
2024/01/07 11:56:19;;;;;;;17.98;11.15;;;;;;;;;;5019303;28;25062;-69
2024/01/07 11:58:44;;;;;;;15.85;10.32;;;;;;;;;;4984278;28;25058;-70
2024/01/07 12:01:10;;;;;;;16.88;10.52;;;;;;;;;;4977006;28;25049;-69
2024/01/07 12:03:36;;;;;;;17.40;10.65;;;;;;;;;;4979897;28;25072;-71
2024/01/07 12:06:03;;;;;;;15.57;10.40;;;;;;;;;;4989224;28;25085;-70
2024/01/07 12:08:30;;;;;;;12.90;9.02;;;;;;;;;;4988719;28;25096;-70
2024/01/07 12:10:56;;;;;;;13.52;9.20;;;;;;;;;;4981237;28;25096;-70
2024/01/07 12:13:23;;;;;;;13.05;8.77;;;;;;;;;;4987789;28;25064;-71
2024/01/07 12:15:49;;;;;;;13.98;8.90;;;;;;;;;;4990758;28;25056;-71
2024/01/07 12:18:15;;;;;;;14.30;8.40;;;;;;;;;;4985186;28;25069;-70
2024/01/07 12:20:41;;;;;;;12.23;7.90;;;;;;;;;;4992933;28;25059;-70
2024/01/07 12:23:08;;;;;;;11.23;8.20;;;;;;;;;;4984610;28;25129;-71
2024/01/07 12:25:34;;;;;;;11.70;7.50;;;;;;;;;;4987813;28;25050;-70
2024/01/07 12:28:00;;;;;;;9.13;7.05;;;;;;;;;;4988038;28;25057;-70
2024/01/07 12:30:26;;;;;;;10.60;6.88;;;;;;;;;;4987608;28;25055;-69
2024/01/07 12:32:53;;;;;;;10.02;7.50;;;;;;;;;;4989479;28;25054;-69
2024/01/07 12:35:19;;;;;;;10.23;6.97;;;;;;;;;;4997628;28;25064;-70
2024/01/07 12:37:45;;;;;;;13.93;6.72;;;;;;;;;;4985590;28;25076;-70
2024/01/07 12:40:11;;;;;;;8.30;7.03;;;;;;;;;;4985887;28;25078;-71
2024/01/07 12:42:44;;;;;;;8.93;6.57;;;;;;;;;;4995601;28;25078;-69
2024/01/07 12:45:11;;;;;;;10.40;6.95;;;;;;;;;;4989127;28;25131;-72
2024/01/07 12:47:37;;;;;;;7.63;6.45;;;;;;;;;;4996455;28;25056;-72
2024/01/07 12:50:03;;;;;;;8.23;6.15;;;;;;;;;;4988777;28;25096;-71
2024/01/07 12:52:29;;;;;;;8.88;6.78;;;;;;;;;;4988129;28;25072;-71
2024/01/07 12:54:56;;;;;;;8.70;6.72;;;;;;;;;;4992744;28;25085;-71
2024/01/07 12:57:22;;;;;;;9.90;6.40;;;;;;;;;;4991270;28;25082;-69
2024/01/07 12:59:48;;;;;;;7.25;5.90;;;;;;;;;;4996768;28;25081;-72
2024/01/07 13:02:15;;;;;;;9.57;6.10;;;;;;;;;;4989948;28;25070;-70
2024/01/07 13:04:41;;;;;;;9.90;5.40;;;;;;;;;;4993382;28;25075;-70
2024/01/07 13:07:07;;;;;;;9.02;5.43;;;;;;;;;;4988875;28;25058;-73
2024/01/07 13:09:33;;;;;;;5.18;4.45;;;;;;;;;;4995736;28;25152;-71
2024/01/07 13:11:59;;;;;;;8.60;5.15;;;;;;;;;;4989729;28;25115;-72
2024/01/07 13:14:25;;;;;;;7.20;3.92;;;;;;;;;;4991781;28;25137;-71
2024/01/07 13:16:51;;;;;;;4.85;4.20;;;;;;;;;;4999555;28;25060;-71
2024/01/07 13:19:17;;;;;;;5.47;3.92;;;;;;;;;;4998029;28;25125;-74
2024/01/07 13:21:45;;;;;;;8.73;4.60;;;;;;;;;;4994741;28;25065;-70
2024/01/07 13:24:11;;;;;;;4.70;3.85;;;;;;;;;;4993709;28;25070;-70
2024/01/07 13:26:37;;;;;;;7.85;4.35;;;;;;;;;;4989439;28;25113;-70
2024/01/07 13:29:03;;;;;;;9.20;4.28;;;;;;;;;;4992257;28;25053;-71
2024/01/07 13:31:29;;;;;;;5.22;3.95;;;;;;;;;;4994645;28;25057;-73
2024/01/07 13:33:55;;;;;;;5.78;4.00;;;;;;;;;;4984741;28;25084;-70
2024/01/07 13:36:21;;;;;;;6.30;4.03;;;;;;;;;;4992975;28;25105;-70
2024/01/07 13:38:49;;;;;;;4.80;3.60;;;;;;;;;;4988938;28;25071;-70
2024/01/07 13:41:16;;;;;;;4.95;4.00;;;;;;;;;;4986065;28;25149;-71
2024/01/07 13:43:42;;;;;;;8.20;3.90;;;;;;;;;;4994682;28;25076;-71
2024/01/07 13:46:08;;;;;;;6.00;3.88;;;;;;;;;;4988763;28;25063;-73
2024/01/07 13:48:34;;;;;;;7.75;4.32;;;;;;;;;;4991654;28;25117;-71
2024/01/07 13:51:02;;;;;;;4.45;3.83;;;;;;;;;;4989917;28;25065;-71
2024/01/07 13:53:28;;;;;;;7.53;4.15;;;;;;;;;;4991793;28;25057;-71
2024/01/07 13:55:55;;;;;;;7.60;3.70;;;;;;;;;;4989526;28;25054;-71
2024/01/07 13:58:22;;;;;;;6.35;3.78;;;;;;;;;;5022992;28;25096;-71
2024/01/07 14:00:48;;;;;;;4.32;3.63;;;;;;;;;;4985698;28;25160;-72
2024/01/07 14:03:14;;;;;;;7.10;3.88;;;;;;;;;;5018214;28;25070;-71
2024/01/07 14:05:40;;;;;;;7.53;3.63;;;;;;;;;;4991677;28;25061;-71
2024/01/07 14:08:06;;;;;;;5.18;3.17;;;;;;;;;;4988181;28;25072;-70
2024/01/07 14:10:32;;;;;;;3.65;2.95;;;;;;;;;;4985513;28;25139;-71
2024/01/07 14:12:58;;;;;;;3.97;3.35;;;;;;;;;;4985659;28;25157;-71
2024/01/07 14:15:24;;;;;;;3.33;3.03;;;;;;;;;;5018052;28;25046;-71
2024/01/07 14:17:50;;;;;;;5.00;3.60;;;;;;;;;;4990651;28;25109;-72